createdAt,value
2018-11-29T00:01:16.333Z,101079.59
2018-11-29T00:06:21.049Z,101080.49
2018-11-29T00:11:35.773Z,101069.66
2018-11-29T00:16:40.777Z,101055.94
2018-11-29T00:21:50.113Z,101059.03
2018-11-29T00:26:57.274Z,101054.80
2018-11-29T00:32:06.995Z,101056.10
2018-11-29T00:37:12.001Z,101045.19
2018-11-29T00:42:16.693Z,101040.20
2018-11-29T00:47:25.203Z,101051.12
2018-11-29T00:52:30.437Z,101058.27
2018-11-29T01:03:07.600Z,101046.87
2018-11-29T01:08:13.153Z,101051.94
2018-11-29T01:13:18.720Z,101048.02
2018-11-29T01:23:55.013Z,101032.19
2018-11-29T01:29:00.201Z,101031.25
2018-11-29T01:34:05.044Z,101027.25
2018-11-29T01:39:10.509Z,101026.53
2018-11-29T01:44:15.493Z,101023.09
2018-11-29T01:49:21.808Z,101023.92
2018-11-29T01:54:26.231Z,101023.05
2018-11-29T01:59:31.161Z,101015.92
2018-11-29T02:04:35.672Z,101017.88
2018-11-29T02:09:40.404Z,100998.06
2018-11-29T02:14:45.224Z,100991.97
2018-11-29T02:19:49.899Z,100981.52
2018-11-29T02:24:54.474Z,100973.80
2018-11-29T02:30:21.529Z,100969.05
2018-11-29T02:35:28.319Z,100969.94
2018-11-29T02:40:46.409Z,100961.22
2018-11-29T02:45:51.239Z,100954.12
2018-11-29T02:50:56.012Z,100954.32
2018-11-29T02:56:00.633Z,100946.55
2018-11-29T03:01:27.717Z,100949.80
2018-11-29T03:06:32.954Z,100955.84
2018-11-29T03:11:37.289Z,100944.58
2018-11-29T03:16:42.466Z,100958.56
2018-11-29T03:21:47.698Z,100959.45
2018-11-29T03:26:51.907Z,100965.36
2018-11-29T03:31:56.131Z,100977.71
2018-11-29T03:37:01.291Z,100973.17
2018-11-29T03:47:38.690Z,100967.95
2018-11-29T03:52:44.627Z,100958.52
2018-11-29T03:57:54.409Z,100940.73
2018-11-29T04:02:59.549Z,100946.92
2018-11-29T04:08:05.169Z,100945.22
2018-11-29T04:13:09.891Z,100940.93
2018-11-29T04:18:19.689Z,100933.09
2018-11-29T04:23:24.427Z,100910.70
2018-11-29T04:28:51.392Z,100913.73
2018-11-29T04:33:56.391Z,100910.73
2018-11-29T04:39:08.219Z,100920.03
2018-11-29T04:44:12.937Z,100913.40
2018-11-29T04:49:17.577Z,100905.77
2018-11-29T04:54:22.156Z,100889.89
2018-11-29T04:59:27.201Z,100899.94
2018-11-29T05:04:31.698Z,100889.20
2018-11-29T05:09:36.257Z,100887.08
2018-11-29T05:14:40.704Z,100876.55
2018-11-29T05:19:45.555Z,100874.52
2018-11-29T05:24:50.164Z,100875.23
2018-11-29T05:29:55.078Z,100878.47
2018-11-29T05:35:01.137Z,100890.92
2018-11-29T05:40:09.639Z,100879.55
2018-11-29T05:45:15.099Z,100872.42
2018-11-29T05:50:25.863Z,100875.03
2018-11-29T05:55:31.649Z,100875.42
2018-11-29T06:00:36.712Z,100883.47
2018-11-29T06:05:43.787Z,100870.87
2018-11-29T06:10:48.925Z,100872.20
2018-11-29T06:15:53.855Z,100871.20
2018-11-29T06:21:00.426Z,100856.38
2018-11-29T06:26:05.247Z,100860.41
2018-11-29T06:31:10.269Z,100861.52
2018-11-29T06:36:14.753Z,100872.20
2018-11-29T06:41:19.616Z,100881.77
2018-11-29T06:46:25.753Z,100875.92
2018-11-29T06:51:29.737Z,100861.95
2018-11-29T06:56:34.423Z,100857.84
2018-11-29T07:01:40.811Z,100859.73
2018-11-29T07:06:46.197Z,100865.16
2018-11-29T07:11:50.947Z,100857.09
2018-11-29T07:17:00.013Z,100861.04
2018-11-29T07:22:04.459Z,100867.16
2018-11-29T07:27:12.647Z,100861.31
2018-11-29T07:32:18.158Z,100853.75
2018-11-29T07:37:22.672Z,100860.57
2018-11-29T07:42:27.085Z,100850.78
2018-11-29T07:47:31.494Z,100846.09
2018-11-29T07:52:36.351Z,100838.22
2018-11-29T07:57:40.795Z,100842.45
2018-11-29T08:02:45.323Z,100847.98
2018-11-29T08:07:55.342Z,100833.59
2018-11-29T08:13:00.209Z,100808.94
2018-11-29T08:18:05.515Z,100815.23
2018-11-29T08:23:11.380Z,100805.54
2018-11-29T08:28:25.302Z,100803.17
2018-11-29T08:33:30.177Z,100804.36
2018-11-29T08:38:39.888Z,100831.42
2018-11-29T08:43:44.315Z,100825.20
2018-11-29T08:48:49.701Z,100813.84
2018-11-29T08:53:55.756Z,100803.34
2018-11-29T08:59:00.541Z,100807.66
2018-11-29T09:04:05.530Z,100789.94
2018-11-29T09:09:09.833Z,100786.31
2018-11-29T09:14:15.058Z,100780.14
2018-11-29T09:19:19.559Z,100769.16
2018-11-29T09:24:24.258Z,100758.87
2018-11-29T09:29:29.603Z,100762.06
2018-11-29T09:34:34.905Z,100765.37
2018-11-29T09:39:40.296Z,100763.67
2018-11-29T09:44:45.947Z,100757.77
2018-11-29T09:49:50.541Z,100750.98
2018-11-29T09:54:55.390Z,100747.85
2018-11-29T10:00:00.259Z,100736.45
2018-11-29T10:05:05.413Z,100720.58
2018-11-29T10:10:12.476Z,100722.90
2018-11-29T10:15:17.862Z,100717.84
2018-11-29T10:20:22.584Z,100717.85
2018-11-29T10:25:27.166Z,100709.32
2018-11-29T10:30:36.237Z,100697.68
2018-11-29T10:35:40.915Z,100681.53
2018-11-29T10:40:46.074Z,100678.72
2018-11-29T10:45:50.589Z,100672.92
2018-11-29T10:50:54.832Z,100679.34
2018-11-29T10:55:59.424Z,100674.23
2018-11-29T11:01:09.581Z,100668.72
2018-11-29T11:06:14.207Z,100668.19
2018-11-29T11:11:21.177Z,100655.84
2018-11-29T11:16:26.396Z,100633.92
2018-11-29T11:21:36.189Z,100620.00
2018-11-29T11:26:40.738Z,100601.88
2018-11-29T11:31:46.618Z,100592.52
2018-11-29T11:36:51.037Z,100572.53
2018-11-29T11:41:55.981Z,100560.67
2018-11-29T11:47:00.532Z,100570.77
2018-11-29T11:52:05.442Z,100561.89
2018-11-29T11:57:09.844Z,100565.92
2018-11-29T12:02:14.258Z,100575.38
2018-11-29T12:07:19.663Z,100591.86
2018-11-29T12:12:25.921Z,100588.09
2018-11-29T12:17:31.194Z,100574.84
2018-11-29T12:22:35.886Z,100573.22
2018-11-29T12:27:40.374Z,100568.27
2018-11-29T12:32:47.590Z,100556.01
2018-11-29T12:37:53.323Z,100576.37
2018-11-29T12:42:57.268Z,100567.00
2018-11-29T12:48:01.627Z,100562.97
2018-11-29T12:53:06.566Z,100561.98
2018-11-29T12:58:10.987Z,100548.20
2018-11-29T13:03:15.616Z,100537.44
2018-11-29T13:08:23.007Z,100525.45
2018-11-29T13:13:27.913Z,100520.35
2018-11-29T13:18:33.188Z,100522.84
2018-11-29T13:23:37.884Z,100507.17
2018-11-29T13:28:42.581Z,100502.88
2018-11-29T13:33:47.564Z,100481.63
2018-11-29T13:38:52.795Z,100484.12
2018-11-29T13:43:57.937Z,100481.45
2018-11-29T13:49:03.480Z,100475.05
2018-11-29T13:54:07.864Z,100474.02
2018-11-29T13:59:18.072Z,100475.27
2018-11-29T14:04:22.633Z,100476.36
2018-11-29T14:09:26.956Z,100472.72
2018-11-29T14:14:32.414Z,100477.44
2018-11-29T14:19:36.680Z,100475.61
2018-11-29T14:24:40.981Z,100480.13
2018-11-29T14:29:45.912Z,100487.51
2018-11-29T14:34:53.973Z,100487.89
2018-11-29T14:39:58.725Z,100477.99
2018-11-29T14:45:03.152Z,100477.02
2018-11-29T14:50:16.283Z,100479.67
2018-11-29T14:55:21.732Z,100478.19
2018-11-29T15:00:30.922Z,100469.92
2018-11-29T15:05:35.408Z,100466.46
2018-11-29T15:10:39.824Z,100467.89
2018-11-29T15:15:44.817Z,100472.50
2018-11-29T15:20:50.096Z,100458.69
2018-11-29T15:25:55.812Z,100452.30
2018-11-29T15:31:00.495Z,100453.70
2018-11-29T15:36:05.099Z,100448.28
2018-11-29T15:41:09.595Z,100451.56
2018-11-29T15:46:14.087Z,100454.10
2018-11-29T15:51:23.467Z,100446.61
2018-11-29T15:56:28.104Z,100447.84
2018-11-29T16:01:32.764Z,100451.95
2018-11-29T16:06:41.212Z,100445.19
2018-11-29T16:11:45.871Z,100430.82
2018-11-29T16:16:50.309Z,100438.17
2018-11-29T16:21:55.042Z,100434.53
2018-11-29T16:27:00.445Z,100431.90
2018-11-29T16:32:14.201Z,100429.41
2018-11-29T16:37:19.134Z,100418.61
2018-11-29T16:42:28.896Z,100413.05
2018-11-29T16:47:33.453Z,100403.55
2018-11-29T16:52:38.194Z,100403.51
2018-11-29T16:57:48.559Z,100407.16
2018-11-29T17:02:53.220Z,100401.81
2018-11-29T17:07:58.535Z,100403.80
2018-11-29T17:13:05.247Z,100407.45
2018-11-29T17:18:09.795Z,100412.55
2018-11-29T17:23:15.558Z,100405.07
2018-11-29T17:28:21.422Z,100407.48
2018-11-29T17:33:27.198Z,100398.73
2018-11-29T17:38:45.836Z,100381.28
2018-11-29T17:43:50.606Z,100374.30
2018-11-29T17:49:01.572Z,100366.97
2018-11-29T17:54:06.944Z,100366.76
2018-11-29T17:59:12.610Z,100372.46
2018-11-29T18:04:17.589Z,100367.92
2018-11-29T18:09:27.531Z,100370.66
2018-11-29T18:14:32.194Z,100375.21
2018-11-29T18:19:47.478Z,100365.20
2018-11-29T18:24:52.196Z,100371.61
2018-11-29T18:29:56.678Z,100368.25
2018-11-29T18:35:04.405Z,100362.31
2018-11-29T18:40:14.559Z,100368.94
2018-11-29T18:45:29.417Z,100373.11
2018-11-29T18:50:40.930Z,100361.58
2018-11-29T18:55:46.937Z,100363.23
2018-11-29T19:01:05.472Z,100361.53
2018-11-29T19:06:10.311Z,100351.79
2018-11-29T19:11:14.927Z,100344.06
2018-11-29T19:16:20.411Z,100328.78
2018-11-29T19:21:25.899Z,100315.61
2018-11-29T19:26:31.425Z,100321.39
2018-11-29T19:31:38.024Z,100307.84
2018-11-29T19:36:43.522Z,100300.98
2018-11-29T19:41:50.682Z,100303.52
2018-11-29T19:52:09.429Z,100299.68
2018-11-29T19:57:13.680Z,100304.28
2018-11-29T20:02:18.052Z,100294.89
2018-11-29T20:07:22.897Z,100293.77
2018-11-29T20:12:28.000Z,100273.84
2018-11-29T20:17:32.538Z,100264.65
2018-11-29T20:22:37.323Z,100265.72
2018-11-29T20:27:43.944Z,100261.78
2018-11-29T20:32:49.410Z,100260.66
2018-11-29T20:37:55.331Z,100246.67
2018-11-29T20:43:00.949Z,100227.84
2018-11-29T20:48:17.157Z,100222.59
2018-11-29T20:53:24.670Z,100211.66
2018-11-29T20:58:30.539Z,100217.05
2018-11-29T21:08:55.939Z,100191.88
2018-11-29T21:14:00.946Z,100180.20
2018-11-29T21:19:05.812Z,100185.79
2018-11-29T21:24:10.288Z,100180.41
2018-11-29T21:29:15.301Z,100224.20
2018-11-29T21:34:20.043Z,100222.25
2018-11-29T21:39:24.691Z,100242.91
2018-11-29T21:44:29.235Z,100243.48
2018-11-29T21:49:34.255Z,100233.87
2018-11-29T21:54:39.514Z,100197.36
2018-11-29T21:59:44.482Z,100238.78
2018-11-29T22:04:50.243Z,100260.49
2018-11-29T22:09:55.366Z,100264.37
2018-11-29T22:15:01.024Z,100264.21
2018-11-29T22:20:05.976Z,100256.92
2018-11-29T22:25:11.747Z,100210.25
2018-11-29T22:30:17.388Z,100217.98
2018-11-29T22:35:24.340Z,100200.23
2018-11-29T22:40:40.259Z,100198.03
2018-11-29T22:45:46.039Z,100224.34
2018-11-29T22:50:56.591Z,100199.89
2018-11-29T22:56:03.038Z,100206.13
2018-11-29T23:01:13.049Z,100208.05
2018-11-29T23:06:17.461Z,100232.38
2018-11-29T23:11:26.896Z,100242.00
2018-11-29T23:16:32.333Z,100211.38
2018-11-29T23:21:37.255Z,100212.64
2018-11-29T23:26:41.808Z,100237.67
2018-11-29T23:31:46.242Z,100213.11
2018-11-29T23:36:50.994Z,100205.23
2018-11-29T23:41:56.274Z,100205.78
2018-11-29T23:47:00.837Z,100208.65
2018-11-29T23:52:10.538Z,100201.84
2018-11-29T23:57:15.225Z,100204.71
